Time;durP1;ratioP1;P1;durP2;ratioP2;P2;SDS_P1;SDS_P2;PMS_P1;PMS_P2;Temp;Humidity;BMP_temperature;BMP_pressure;BME280_temperature;BME280_humidity;BME280_pressure;Samples;Min_cycle;Max_cycle;Signal;HPM_P1;HPM_P2
2023/09/12 00:00:17;;;;;;;1.77;0.60;;;;;;;19.08;46.45;99148.06;5074750;28;20192;-85
2023/09/12 00:02:42;;;;;;;3.13;0.50;;;;;;;19.05;46.12;99138.50;5056954;28;20298;-84
2023/09/12 00:05:09;;;;;;;0.97;0.40;;;;;;;19.02;46.30;99141.47;5074722;28;20228;-85
2023/09/12 00:07:36;;;;;;;1.30;0.50;;;;;;;19.00;46.24;99141.56;5057036;28;20627;-84
2023/09/12 00:10:03;;;;;;;1.87;0.47;;;;;;;19.05;45.80;99140.34;5074660;28;20183;-84
2023/09/12 00:12:28;;;;;;;1.13;0.53;;;;;;;19.00;45.92;99144.22;5074464;28;20188;-84
2023/09/12 00:14:55;;;;;;;1.53;0.60;;;;;;;19.02;45.90;99144.94;5074511;28;20181;-84
2023/09/12 00:17:20;;;;;;;4.80;0.60;;;;;;;19.07;45.73;99149.03;5074357;28;20190;-85
2023/09/12 00:19:47;;;;;;;1.53;0.40;;;;;;;18.96;46.19;99145.50;5074426;28;20625;-85
2023/09/12 00:22:12;;;;;;;1.03;0.40;;;;;;;18.91;46.16;99147.69;5074408;28;20210;-84
2023/09/12 00:24:39;;;;;;;1.00;0.50;;;;;;;18.92;46.18;99151.16;5074130;28;20176;-84
2023/09/12 00:27:05;;;;;;;2.50;0.47;;;;;;;18.84;46.06;99151.03;5056582;28;20534;-84
2023/09/12 00:29:33;;;;;;;1.10;0.53;;;;;;;18.81;46.10;99145.97;5056207;28;20181;-84
2023/09/12 00:31:59;;;;;;;0.57;0.30;;;;;;;18.70;46.77;99149.53;5074143;28;20554;-84
2023/09/12 00:34:26;;;;;;;1.00;0.47;;;;;;;18.65;46.60;99157.06;5074128;28;20179;-84
2023/09/12 00:36:53;;;;;;;1.43;0.60;;;;;;;18.60;46.98;99153.97;5074078;28;20220;-84
2023/09/12 00:39:20;;;;;;;0.70;0.30;;;;;;;18.51;47.62;99154.72;5056410;28;20264;-85
2023/09/12 00:41:45;;;;;;;1.17;0.40;;;;;;;18.55;47.06;99156.16;5073672;28;20255;-85
2023/09/12 00:44:12;;;;;;;1.93;0.93;;;;;;;18.57;47.04;99159.53;5073954;28;20173;-85
2023/09/12 00:46:40;;;;;;;0.97;0.40;;;;;;;18.59;47.10;99151.41;5073759;28;20640;-85
2023/09/12 00:49:07;;;;;;;1.07;0.40;;;;;;;18.61;47.07;99155.63;5073726;28;20173;-85
2023/09/12 00:51:34;;;;;;;0.87;0.30;;;;;;;18.55;47.13;99156.16;5056036;28;20191;-84
2023/09/12 00:54:01;;;;;;;1.50;0.60;;;;;;;18.51;47.44;99153.88;5056117;28;20177;-84
2023/09/12 00:56:28;;;;;;;2.17;0.40;;;;;;;18.45;48.02;99159.69;5055857;28;20575;-84
2023/09/12 00:58:56;;;;;;;0.57;0.37;;;;;;;18.45;47.44;99155.19;5074164;28;20169;-84
2023/09/12 01:01:23;;;;;;;0.97;0.50;;;;;;;18.48;47.03;99160.28;5073972;28;20251;-84
2023/09/12 01:03:50;;;;;;;1.17;0.30;;;;;;;18.48;47.23;99154.13;5073522;28;20213;-84
2023/09/12 01:06:21;;;;;;;0.97;0.40;;;;;;;18.42;47.18;99160.81;5055970;28;20612;-84
2023/09/12 01:08:48;;;;;;;0.87;0.30;;;;;;;18.38;47.43;99154.03;5073380;28;20543;-84
2023/09/12 01:11:14;;;;;;;1.53;0.60;;;;;;;18.33;47.40;99157.09;5055753;28;20207;-85
2023/09/12 01:13:41;;;;;;;1.70;0.80;;;;;;;18.29;47.52;99154.84;5073411;28;20169;-85
2023/09/12 01:16:07;;;;;;;1.90;0.60;;;;;;;18.24;47.80;99157.00;5073923;28;20180;-85
2023/09/12 01:18:34;;;;;;;1.57;0.40;;;;;;;18.24;47.60;99157.00;5072942;28;20200;-85
2023/09/12 01:21:36;;;;;;;2.27;0.60;;;;;;;18.24;47.57;99163.16;5073480;28;20173;-85
2023/09/12 01:24:20;;;;;;;1.23;0.50;;;;;;;18.18;47.52;99168.16;5057830;28;20269;-85
2023/09/12 01:26:51;;;;;;;1.07;0.40;;;;;;;18.13;47.54;99159.72;5053568;28;20241;-84
2023/09/12 01:29:20;;;;;;;1.17;0.40;;;;;;;18.04;48.29;99165.78;5050723;28;20187;-84
2023/09/12 01:31:47;;;;;;;6.03;0.53;;;;;;;18.01;48.91;99163.38;5073191;28;20205;-84
2023/09/12 01:34:14;;;;;;;1.40;0.53;;;;;;;18.08;48.49;99164.59;5073448;28;20189;-84
2023/09/12 01:36:41;;;;;;;2.73;0.40;;;;;;;18.08;48.19;99167.22;5055293;28;20181;-84
2023/09/12 01:39:06;;;;;;;1.30;0.50;;;;;;;18.01;48.35;99169.53;5055590;28;20182;-85
2023/09/12 01:41:39;;;;;;;1.27;0.70;;;;;;;18.01;48.12;99166.03;5072260;28;20220;-85
2023/09/12 01:44:08;;;;;;;1.77;0.67;;;;;;;17.96;48.47;99165.56;5073562;28;20198;-84
2023/09/12 01:46:36;;;;;;;2.33;0.37;;;;;;;18.01;48.33;99163.38;5044609;28;20548;-85
2023/09/12 01:49:05;;;;;;;1.50;0.30;;;;;;;18.13;48.08;99165.03;5053536;28;20688;-85
2023/09/12 01:51:33;;;;;;;0.80;0.40;;;;;;;17.91;48.45;99176.56;5063808;28;20185;-85
2023/09/12 01:54:00;;;;;;;0.77;0.37;;;;;;;17.84;48.76;99174.53;5073229;28;20536;-84
2023/09/12 01:56:26;;;;;;;2.07;0.70;;;;;;;17.80;49.00;99173.94;5072971;28;20341;-84
2023/09/12 01:58:53;;;;;;;1.90;0.50;;;;;;;17.78;49.15;99175.88;5058848;28;20276;-84
2023/09/12 02:01:18;;;;;;;1.07;0.40;;;;;;;17.70;49.46;99178.31;5053241;28;20236;-84
2023/09/12 02:03:45;;;;;;;2.20;0.57;;;;;;;17.90;48.80;99182.00;5053150;28;20185;-84
2023/09/12 02:06:12;;;;;;;1.23;0.40;;;;;;;17.88;49.08;99186.56;5048602;28;20234;-84
2023/09/12 02:08:38;;;;;;;2.30;1.13;;;;;;;17.84;49.47;99177.19;5072793;28;20645;-84
2023/09/12 02:11:05;;;;;;;0.77;0.40;;;;;;;17.87;48.82;99180.44;5072827;28;20184;-84
2023/09/12 02:13:31;;;;;;;1.23;0.70;;;;;;;17.79;49.13;99178.41;5054953;28;20192;-84
2023/09/12 02:16:03;;;;;;;1.87;0.40;;;;;;;17.73;49.52;99178.91;5072954;28;20540;-84
2023/09/12 02:18:29;;;;;;;1.30;0.60;;;;;;;17.78;49.04;99176.72;5072761;28;20177;-84
2023/09/12 02:20:55;;;;;;;1.77;0.50;;;;;;;17.80;48.51;99177.44;5072388;28;20640;-84
2023/09/12 02:23:21;;;;;;;2.17;0.50;;;;;;;17.89;48.17;99177.66;5072694;28;20184;-84
2023/09/12 02:25:47;;;;;;;0.93;0.50;;;;;;;17.85;48.38;99169.09;5072196;28;20169;-84
2023/09/12 02:28:12;;;;;;;1.03;0.53;;;;;;;17.77;48.88;99174.19;5054603;28;20181;-84
2023/09/12 02:30:40;;;;;;;1.93;0.60;;;;;;;17.76;48.81;99172.53;5072874;28;20176;-84
2023/09/12 02:33:05;;;;;;;1.27;0.47;;;;;;;17.72;48.93;99182.53;5072569;28;20174;-84
2023/09/12 02:35:31;;;;;;;1.27;0.40;;;;;;;17.70;48.60;99179.16;5072136;28;20185;-84
2023/09/12 02:37:58;;;;;;;2.00;0.53;;;;;;;17.69;48.61;99177.47;5072505;28;20256;-84
2023/09/12 02:40:23;;;;;;;2.93;1.10;;;;;;;17.65;49.04;99176.03;5072496;28;20188;-84
2023/09/12 02:42:49;;;;;;;2.00;0.47;;;;;;;17.64;49.27;99181.44;5054285;28;20197;-84
2023/09/12 02:45:14;;;;;;;1.07;0.50;;;;;;;17.57;49.67;99175.81;5072123;28;20311;-84
2023/09/12 02:47:43;;;;;;;1.03;0.40;;;;;;;17.55;49.43;99180.41;5054861;28;20287;-84
2023/09/12 02:50:09;;;;;;;0.83;0.40;;;;;;;17.55;49.45;99184.84;5072732;28;20176;-84
2023/09/12 02:52:36;;;;;;;1.47;0.50;;;;;;;17.49;49.72;99185.31;5075323;28;20172;-84
2023/09/12 02:55:01;;;;;;;1.33;0.50;;;;;;;17.47;49.90;99181.94;5075538;28;20239;-84
2023/09/12 02:57:27;;;;;;;1.13;0.63;;;;;;;17.43;50.06;99188.44;5055954;28;20172;-84
2023/09/12 02:59:53;;;;;;;1.10;0.47;;;;;;;17.40;50.09;99184.22;5057548;28;20646;-84
2023/09/12 03:02:20;;;;;;;0.73;0.40;;;;;;;17.41;49.98;99187.72;5075802;28;20200;-84
2023/09/12 03:04:47;;;;;;;0.87;0.40;;;;;;;17.37;49.91;99183.63;5075925;28;20315;-84
2023/09/12 03:07:14;;;;;;;1.20;0.50;;;;;;;17.36;50.11;99189.91;5076040;28;20188;-84
2023/09/12 03:09:40;;;;;;;2.90;1.00;;;;;;;17.34;49.78;99189.19;5058062;28;20558;-84
2023/09/12 03:12:06;;;;;;;1.13;0.40;;;;;;;17.28;50.02;99195.81;5075603;28;20188;-84
2023/09/12 03:14:31;;;;;;;2.77;0.70;;;;;;;17.25;50.13;99184.59;5057864;28;20258;-84
2023/09/12 03:16:58;;;;;;;0.93;0.60;;;;;;;17.22;49.98;99193.63;5057893;28;20181;-84
2023/09/12 03:19:24;;;;;;;2.40;0.60;;;;;;;17.19;50.33;99191.22;5075477;28;20186;-84
2023/09/12 03:21:51;;;;;;;2.13;0.60;;;;;;;17.17;50.38;99196.66;5075480;28;20279;-84
2023/09/12 03:24:18;;;;;;;2.63;0.60;;;;;;;17.18;50.42;99200.13;5071314;28;20185;-84
2023/09/12 03:26:44;;;;;;;0.87;0.40;;;;;;;17.17;50.66;99195.78;5055430;28;20209;-84
2023/09/12 03:29:10;;;;;;;0.77;0.30;;;;;;;17.15;50.92;99192.44;5060195;28;20205;-84
2023/09/12 03:31:37;;;;;;;2.80;0.70;;;;;;;17.14;50.92;99196.03;5057743;28;20653;-84
2023/09/12 03:34:03;;;;;;;4.60;1.13;;;;;;;17.12;51.01;99193.53;5057702;28;20191;-84
2023/09/12 03:36:30;;;;;;;1.10;0.50;;;;;;;17.11;51.44;99193.66;5075512;28;20644;-84
2023/09/12 03:38:57;;;;;;;1.73;0.57;;;;;;;17.15;51.26;99193.28;5075496;28;20192;-84
2023/09/12 03:41:25;;;;;;;1.30;0.50;;;;;;;17.09;51.48;99195.56;5075076;28;20200;-84
2023/09/12 03:43:53;;;;;;;1.90;0.60;;;;;;;17.06;51.97;99195.78;5057362;28;20645;-84
2023/09/12 03:46:19;;;;;;;5.00;0.90;;;;;;;17.03;51.93;99198.69;5074936;28;20227;-84
2023/09/12 03:48:46;;;;;;;1.63;0.73;;;;;;;17.05;51.98;99204.72;5075057;28;20287;-84
2023/09/12 03:51:13;;;;;;;1.97;0.90;;;;;;;17.03;51.87;99199.53;5075499;28;20609;-84
2023/09/12 03:53:39;;;;;;;1.47;0.70;;;;;;;17.02;52.36;99203.16;5075171;28;20206;-84
2023/09/12 03:56:07;;;;;;;1.40;0.80;;;;;;;17.02;51.86;99204.94;5074555;28;20187;-84
2023/09/12 03:58:34;;;;;;;1.03;0.53;;;;;;;17.02;51.58;99211.09;5057217;28;20192;-84
2023/09/12 04:01:00;;;;;;;3.37;0.73;;;;;;;17.04;51.58;99206.50;5074548;28;20184;-84
2023/09/12 04:03:25;;;;;;;4.80;0.60;;;;;;;17.02;51.88;99210.25;5073999;28;20187;-84
2023/09/12 04:05:53;;;;;;;2.97;1.03;;;;;;;17.02;52.14;99212.88;5057044;28;20211;-84
2023/09/12 04:08:20;;;;;;;2.20;1.00;;;;;;;16.96;52.47;99214.22;5074672;28;20180;-84
2023/09/12 04:10:46;;;;;;;5.07;1.27;;;;;;;16.99;52.58;99206.03;5060561;28;20206;-84
2023/09/12 04:13:13;;;;;;;2.57;0.80;;;;;;;17.04;52.46;99216.25;5063319;28;20192;-84
2023/09/12 04:15:38;;;;;;;2.07;0.90;;;;;;;17.06;52.73;99214.31;5074307;28;20207;-84
2023/09/12 04:18:05;;;;;;;4.93;1.17;;;;;;;17.09;53.00;99206.16;5046820;28;20644;-84
2023/09/12 04:20:32;;;;;;;9.90;3.17;;;;;;;17.01;53.85;99211.19;5073789;28;20204;-84
2023/09/12 04:23:02;;;;;;;3.10;1.73;;;;;;;17.04;53.81;99213.59;5060500;28;20212;-84
2023/09/12 04:25:29;;;;;;;3.40;1.53;;;;;;;17.09;54.19;99208.78;5052993;28;20181;-84
2023/09/12 04:27:55;;;;;;;2.77;1.00;;;;;;;17.11;54.15;99207.72;5053598;28;20685;-84
2023/09/12 04:30:21;;;;;;;2.40;1.00;;;;;;;17.16;54.23;99207.38;5068680;28;20655;-84
2023/09/12 04:32:47;;;;;;;6.30;0.90;;;;;;;17.17;53.98;99209.03;5056221;28;20173;-84
2023/09/12 04:35:14;;;;;;;11.70;1.93;;;;;;;17.16;54.01;99204.72;5056296;28;20185;-84
2023/09/12 04:37:41;;;;;;;2.13;0.80;;;;;;;17.18;53.81;99208.94;5074336;28;20249;-84
2023/09/12 04:40:07;;;;;;;3.07;0.90;;;;;;;17.25;54.11;99214.59;5073932;28;20263;-84
2023/09/12 04:42:32;;;;;;;4.37;1.83;;;;;;;17.28;54.05;99222.28;5073647;28;20289;-84
2023/09/12 04:44:58;;;;;;;6.03;1.17;;;;;;;17.26;53.89;99216.28;5073575;28;20637;-84
2023/09/12 04:47:25;;;;;;;3.90;1.23;;;;;;;17.32;54.01;99217.59;5074147;28;20184;-84
2023/09/12 04:49:50;;;;;;;2.37;0.80;;;;;;;17.45;53.67;99218.31;5055998;28;20209;-84
2023/09/12 04:52:17;;;;;;;3.80;1.23;;;;;;;17.51;53.58;99223.13;5056766;28;20207;-84
2023/09/12 04:54:43;;;;;;;5.73;0.93;;;;;;;17.51;54.16;99223.97;5056048;28;21757;-84
2023/09/12 04:57:09;;;;;;;4.00;1.20;;;;;;;17.48;54.04;99226.84;5056113;28;20233;-84
2023/09/12 04:59:36;;;;;;;4.37;1.33;;;;;;;17.50;53.70;99224.94;5073637;28;20181;-84
2023/09/12 05:02:01;;;;;;;1.87;0.63;;;;;;;17.56;54.18;99229.78;5073475;28;20223;-84
2023/09/12 05:04:28;;;;;;;1.77;0.80;;;;;;;17.60;54.34;99222.44;5055977;28;20212;-84
2023/09/12 05:06:55;;;;;;;4.23;0.80;;;;;;;17.62;54.71;99218.69;5073347;28;20191;-84
2023/09/12 05:09:21;;;;;;;4.57;0.90;;;;;;;17.87;54.85;99216.72;5073290;28;20181;-84
2023/09/12 05:11:48;;;;;;;3.47;1.00;;;;;;;18.21;54.04;99220.97;5073739;28;20238;-84
2023/09/12 05:14:13;;;;;;;2.90;0.93;;;;;;;18.53;53.90;99221.78;5073013;28;20211;-84
2023/09/12 05:16:40;;;;;;;1.53;1.00;;;;;;;18.76;53.59;99215.38;5055035;28;20623;-84
2023/09/12 05:19:05;;;;;;;6.87;1.20;;;;;;;19.16;53.13;99214.63;5073331;28;20317;-84
2023/09/12 05:21:31;;;;;;;2.50;0.80;;;;;;;19.40;52.46;99209.88;5065898;28;20292;-85
2023/09/12 05:23:58;;;;;;;7.77;0.80;;;;;;;19.44;52.55;99209.47;5062678;28;20182;-85
2023/09/12 05:26:24;;;;;;;1.30;0.70;;;;;;;19.54;52.41;99220.16;5055613;28;20185;-84
2023/09/12 05:28:50;;;;;;;5.20;0.60;;;;;;;19.80;51.82;99212.53;5073155;28;20233;-85
2023/09/12 05:31:16;;;;;;;1.33;0.67;;;;;;;19.93;51.78;99213.97;5073026;28;20308;-84
2023/09/12 05:33:43;;;;;;;1.93;0.77;;;;;;;20.08;51.85;99215.25;5055498;28;20181;-85
2023/09/12 05:36:10;;;;;;;4.70;0.83;;;;;;;20.36;51.13;99216.25;5055345;28;20183;-84
2023/09/12 05:38:37;;;;;;;1.03;0.47;;;;;;;20.51;51.37;99216.69;5055478;28;20262;-85
2023/09/12 05:41:04;;;;;;;2.73;0.73;;;;;;;20.68;51.13;99223.94;5073570;28;20185;-85
2023/09/12 05:43:30;;;;;;;2.73;0.80;;;;;;;20.98;50.32;99215.78;5073018;28;20633;-85
2023/09/12 05:45:58;;;;;;;1.67;0.60;;;;;;;21.30;49.76;99216.25;5055127;28;20575;-85
2023/09/12 05:48:24;;;;;;;1.10;0.60;;;;;;;21.54;49.69;99215.72;5055195;28;20564;-85
2023/09/12 05:50:51;;;;;;;1.40;0.60;;;;;;;21.93;48.43;99213.75;5055391;28;20246;-85
2023/09/12 05:53:16;;;;;;;2.63;0.80;;;;;;;22.27;48.04;99209.41;5055189;28;20212;-85
2023/09/12 05:55:41;;;;;;;1.60;0.63;;;;;;;22.59;47.54;99216.84;5046499;28;20212;-85
2023/09/12 05:58:08;;;;;;;3.20;0.60;;;;;;;22.71;47.28;99215.66;5053132;28;20174;-85
2023/09/12 06:00:35;;;;;;;4.30;0.90;;;;;;;22.84;47.51;99212.59;5035628;28;20611;-85
2023/09/12 06:03:01;;;;;;;3.90;0.90;;;;;;;23.14;46.88;99210.28;5066327;28;20204;-85
2023/09/12 06:05:27;;;;;;;2.13;0.80;;;;;;;23.50;46.43;99212.84;5073114;28;20181;-85
2023/09/12 06:07:52;;;;;;;2.97;0.83;;;;;;;23.84;46.46;99209.13;5055078;28;20184;-85
2023/09/12 06:10:19;;;;;;;1.83;0.60;;;;;;;24.30;46.07;99201.53;5072794;28;20235;-85
2023/09/12 06:12:46;;;;;;;1.47;0.60;;;;;;;24.74;44.73;99210.94;5073050;28;20169;-85
2023/09/12 06:15:12;;;;;;;2.07;0.80;;;;;;;25.17;43.94;99209.75;5072640;28;20181;-85
2023/09/12 06:17:39;;;;;;;2.10;0.97;;;;;;;25.64;42.66;99215.16;5072940;28;20231;-85
2023/09/12 06:20:06;;;;;;;2.43;0.60;;;;;;;26.01;42.17;99212.63;5072544;28;20223;-85
2023/09/12 06:22:32;;;;;;;1.97;0.73;;;;;;;26.14;40.99;99210.22;5072144;28;20184;-85
2023/09/12 06:24:58;;;;;;;1.43;0.60;;;;;;;26.36;40.16;99218.47;5072724;28;20184;-85
2023/09/12 06:27:24;;;;;;;1.00;0.43;;;;;;;26.46;38.60;99211.84;5074917;28;20173;-85
2023/09/12 06:29:49;;;;;;;2.10;0.80;;;;;;;26.82;37.63;99222.84;5076292;28;20269;-85
2023/09/12 06:32:17;;;;;;;1.63;0.70;;;;;;;27.31;35.64;99223.19;5058841;28;20176;-85
2023/09/12 06:34:44;;;;;;;1.90;0.80;;;;;;;27.79;33.43;99216.44;5058695;28;20557;-85
2023/09/12 06:37:14;;;;;;;1.90;0.67;;;;;;;28.23;33.13;99214.50;5076118;28;20185;-85
2023/09/12 06:39:40;;;;;;;3.80;0.80;;;;;;;28.79;31.73;99225.44;5076348;28;20180;-85
2023/09/12 06:42:08;;;;;;;2.97;0.73;;;;;;;29.27;30.99;99224.59;5058618;28;20201;-87
2023/09/12 06:44:35;;;;;;;1.37;0.60;;;;;;;29.70;30.55;99225.25;5058762;28;20180;-86
2023/09/12 06:47:04;;;;;;;4.43;0.67;;;;;;;30.12;29.54;99226.91;5076040;28;20220;-86
2023/09/12 06:49:32;;;;;;;2.47;0.70;;;;;;;30.37;30.04;99222.66;5076077;28;20218;-86
2023/09/12 06:51:59;;;;;;;1.92;0.68;;;;;;;30.73;29.35;99225.81;5058546;28;20619;-87
2023/09/12 06:54:25;;;;;;;2.90;0.82;;;;;;;31.05;28.75;99234.19;5075941;28;20221;-87
2023/09/12 06:56:51;;;;;;;4.55;1.25;;;;;;;31.29;28.51;99228.13;5059337;28;20254;-86
2023/09/12 06:59:18;;;;;;;2.53;0.80;;;;;;;31.40;28.87;99232.88;5076064;28;20173;-87
2023/09/12 07:01:44;;;;;;;5.03;1.08;;;;;;;31.67;27.87;99230.97;5058356;28;20220;-87
2023/09/12 07:04:10;;;;;;;1.85;0.70;;;;;;;31.92;27.87;99230.03;5076221;28;20185;-87
2023/09/12 07:06:37;;;;;;;3.70;0.90;;;;;;;31.91;27.67;99222.97;5076218;28;20260;-87
2023/09/12 07:09:04;;;;;;;1.50;0.60;;;;;;;31.90;27.83;99225.88;5076237;28;20168;-86
2023/09/12 07:11:30;;;;;;;2.95;0.82;;;;;;;32.06;28.67;99225.41;5075755;28;20181;-86
2023/09/12 07:13:56;;;;;;;3.42;0.98;;;;;;;32.06;27.86;99226.25;5075680;28;20173;-87
2023/09/12 07:16:23;;;;;;;2.63;0.88;;;;;;;32.03;27.29;99220.44;5076113;28;20173;-87
2023/09/12 07:18:50;;;;;;;2.90;0.88;;;;;;;31.98;27.37;99234.59;5061512;28;20178;-87
2023/09/12 07:21:17;;;;;;;2.17;0.70;;;;;;;31.98;27.65;99231.91;5055567;28;20169;-86
2023/09/12 07:23:44;;;;;;;2.85;0.98;;;;;;;32.06;26.98;99234.41;5038911;28;20192;-86
2023/09/12 07:26:14;;;;;;;3.53;1.00;;;;;;;32.16;26.88;99233.91;5072850;28;20211;-86
2023/09/12 07:28:40;;;;;;;1.95;1.00;;;;;;;32.13;26.72;99235.19;5057772;28;20176;-87
2023/09/12 07:31:06;;;;;;;2.33;0.88;;;;;;;31.97;26.77;99230.22;5076042;28;20509;-86
2023/09/12 07:33:33;;;;;;;3.35;0.85;;;;;;;31.94;28.00;99237.97;5057813;28;20184;-87
2023/09/12 07:35:59;;;;;;;3.63;0.88;;;;;;;31.86;27.70;99230.06;5057569;28;20191;-87
2023/09/12 07:38:26;;;;;;;2.58;1.10;;;;;;;31.96;27.86;99236.72;5056821;28;20209;-86
2023/09/12 07:40:52;;;;;;;4.53;1.58;;;;;;;32.14;26.92;99236.84;5057776;28;20192;-87
2023/09/12 07:43:19;;;;;;;1.52;0.73;;;;;;;32.15;26.56;99230.38;5057425;28;20580;-87
2023/09/12 07:45:45;;;;;;;2.20;0.98;;;;;;;32.14;26.18;99230.59;5075861;28;20181;-87
2023/09/12 07:48:12;;;;;;;4.35;1.00;;;;;;;32.14;26.60;99223.31;5057215;28;20189;-87
2023/09/12 07:50:39;;;;;;;3.85;2.38;;;;;;;32.12;26.43;99232.69;5057474;28;20546;-87
2023/09/12 07:53:06;;;;;;;5.88;1.25;;;;;;;31.90;26.18;99232.13;5075169;28;20614;-86
2023/09/12 07:55:45;;;;;;;3.30;1.10;;;;;;;31.71;27.16;99230.31;5075182;28;20196;-87
2023/09/12 07:58:15;;;;;;;2.80;0.82;;;;;;;31.87;27.35;99231.72;5057414;28;20610;-87
2023/09/12 08:00:41;;;;;;;3.80;0.40;;;;;;;31.56;27.52;99225.16;5074714;28;20549;-87
2023/09/12 08:03:08;;;;;;;1.20;0.70;;;;;;;31.79;27.79;99227.38;5074730;28;20207;-87
2023/09/12 08:05:36;;;;;;;1.98;0.80;;;;;;;32.01;27.61;99220.66;5057299;28;20189;-87
2023/09/12 08:08:03;;;;;;;2.25;0.80;;;;;;;32.03;28.06;99231.28;5075059;28;20234;-87
2023/09/12 08:10:29;;;;;;;1.92;1.05;;;;;;;32.02;28.64;99227.72;5075126;28;20189;-87
2023/09/12 08:12:55;;;;;;;2.92;1.00;;;;;;;32.10;28.28;99226.66;5074955;28;20181;-87
2023/09/12 08:15:22;;;;;;;3.13;0.75;;;;;;;32.04;28.52;99222.09;5064883;28;20207;-86
2023/09/12 08:17:51;;;;;;;1.27;0.60;;;;;;;32.13;28.66;99221.63;5054937;28;20182;-86
2023/09/12 08:20:20;;;;;;;3.88;1.52;;;;;;;32.10;28.20;99216.63;5054758;28;20269;-87
2023/09/12 08:22:47;;;;;;;1.67;0.68;;;;;;;32.23;28.84;99216.56;5048717;28;20219;-87
2023/09/12 08:25:14;;;;;;;4.45;1.05;;;;;;;32.33;27.58;99215.25;5056777;28;20579;-86
2023/09/12 08:27:40;;;;;;;5.00;0.70;;;;;;;32.30;28.06;99218.41;5074303;28;20185;-86
2023/09/12 08:30:08;;;;;;;1.80;0.68;;;;;;;31.72;28.79;99210.31;5074408;28;20341;-86
2023/09/12 08:32:33;;;;;;;5.05;1.40;;;;;;;31.81;29.56;99206.31;5074134;28;20214;-87
2023/09/12 08:34:59;;;;;;;1.92;0.88;;;;;;;32.03;28.69;99204.16;5056600;28;20204;-87
2023/09/12 08:37:26;;;;;;;0.45;0.30;;;;;;;32.14;28.79;99201.59;5075021;28;20181;-86
2023/09/12 08:39:56;;;;;;;2.60;0.80;;;;;;;31.58;29.42;99204.09;5056564;28;20181;-86
2023/09/12 08:42:25;;;;;;;2.22;0.60;;;;;;;31.41;30.02;99196.63;5056419;28;20587;-86
2023/09/12 08:44:50;;;;;;;3.33;0.73;;;;;;;31.79;30.03;99196.75;5074200;28;20173;-86
2023/09/12 08:47:19;;;;;;;1.27;0.60;;;;;;;31.61;29.66;99194.72;5074356;28;20206;-86
2023/09/12 08:49:45;;;;;;;2.58;1.45;;;;;;;31.94;29.44;99200.84;5074116;28;20689;-87
2023/09/12 08:52:10;;;;;;;3.35;0.60;;;;;;;31.97;29.33;99194.16;5048499;28;20288;-86
2023/09/12 08:54:37;;;;;;;2.03;0.60;;;;;;;32.05;28.89;99188.53;5054002;28;20181;-86
2023/09/12 08:57:05;;;;;;;1.90;0.55;;;;;;;32.09;28.77;99189.72;5054151;28;20176;-86
2023/09/12 08:59:37;;;;;;;1.42;0.57;;;;;;;32.03;29.15;99183.28;5052641;28;20363;-86
2023/09/12 09:02:07;;;;;;;3.90;0.80;;;;;;;31.74;29.05;99191.94;5073900;28;20646;-86
2023/09/12 09:04:34;;;;;;;2.58;1.00;;;;;;;32.14;28.55;99182.63;5073732;28;20196;-86
2023/09/12 09:07:01;;;;;;;2.50;0.80;;;;;;;32.06;29.38;99177.44;5056060;28;20541;-86
2023/09/12 09:09:31;;;;;;;2.03;0.70;;;;;;;32.47;28.49;99184.28;5073215;28;20188;-86
2023/09/12 09:11:57;;;;;;;1.15;0.63;;;;;;;32.59;28.53;99180.66;5055872;28;20185;-86
2023/09/12 09:14:23;;;;;;;1.83;0.73;;;;;;;32.69;27.68;99180.16;5073381;28;20685;-86
2023/09/12 09:16:50;;;;;;;0.70;0.32;;;;;;;32.73;27.99;99175.97;5073520;28;20188;-85
2023/09/12 09:19:18;;;;;;;2.30;1.00;;;;;;;33.11;27.92;99181.28;5073365;28;20183;-86
2023/09/12 09:21:45;;;;;;;3.05;1.40;;;;;;;33.00;27.26;99176.53;5073197;28;20209;-86
2023/09/12 09:24:15;;;;;;;6.70;0.70;;;;;;;33.21;27.89;99182.44;5073699;28;20622;-86
2023/09/12 09:26:47;;;;;;;1.48;0.60;;;;;;;33.42;27.22;99175.72;5056327;28;20196;-86
2023/09/12 09:29:16;;;;;;;2.33;0.80;;;;;;;33.76;27.95;99177.84;5055557;28;20534;-86
2023/09/12 09:31:44;;;;;;;1.85;0.68;;;;;;;33.94;27.43;99171.53;5056034;28;20280;-86
2023/09/12 09:34:16;;;;;;;3.08;1.00;;;;;;;33.85;26.99;99179.22;5063550;28;20242;-86
2023/09/12 09:36:43;;;;;;;1.65;0.50;;;;;;;34.18;28.07;99167.88;5036089;28;20662;-86
2023/09/12 09:39:10;;;;;;;1.98;0.70;;;;;;;34.42;26.19;99160.63;5055129;28;20247;-86
2023/09/12 09:41:38;;;;;;;8.00;5.22;;;;;;;34.53;25.71;99157.94;5073048;28;20628;-86
2023/09/12 09:44:08;;;;;;;2.50;1.10;;;;;;;34.12;27.22;99155.19;5055475;28;20192;-86
2023/09/12 09:46:35;;;;;;;2.08;0.85;;;;;;;34.19;26.47;99152.41;5073586;28;20258;-86
2023/09/12 09:49:00;;;;;;;4.60;1.10;;;;;;;34.06;26.63;99164.31;5073117;28;20177;-87
2023/09/12 09:51:31;;;;;;;2.30;0.70;;;;;;;34.09;25.65;99158.41;5055374;28;20516;-86
2023/09/12 09:53:58;;;;;;;1.55;0.50;;;;;;;33.91;26.26;99153.00;5055418;28;20184;-86
2023/09/12 09:56:28;;;;;;;2.63;0.73;;;;;;;33.91;25.68;99151.06;5055174;28;20202;-86
2023/09/12 09:58:56;;;;;;;5.70;3.30;;;;;;;34.08;26.75;99148.56;5055617;28;20191;-87
2023/09/12 10:01:27;;;;;;;4.07;1.27;;;;;;;34.15;26.06;99149.31;5074156;28;20181;-86
2023/09/12 10:04:01;;;;;;;1.50;0.82;;;;;;;33.87;25.85;99155.31;5059420;28;20180;-86
2023/09/12 10:06:28;;;;;;;3.80;0.80;;;;;;;33.85;26.52;99145.75;5077407;28;20169;-87
2023/09/12 10:08:54;;;;;;;2.20;0.50;;;;;;;33.66;26.44;99153.09;5076804;28;20616;-86
2023/09/12 10:11:29;;;;;;;1.67;0.77;;;;;;;33.71;26.80;99144.25;5059051;28;20215;-86
2023/09/12 10:13:56;;;;;;;2.00;0.95;;;;;;;33.79;26.83;99136.59;5076904;28;20196;-87
2023/09/12 10:16:30;;;;;;;2.42;1.08;;;;;;;34.09;25.63;99135.81;5058852;28;20215;-86
2023/09/12 10:19:07;;;;;;;1.17;0.60;;;;;;;33.90;26.44;99130.41;5058379;28;20184;-87
2023/09/12 10:21:35;;;;;;;1.52;0.68;;;;;;;34.04;25.84;99128.31;5065851;28;20661;-86
2023/09/12 10:24:03;;;;;;;1.70;0.60;;;;;;;34.25;26.03;99122.34;5049772;28;20181;-86
2023/09/12 10:26:31;;;;;;;1.38;0.60;;;;;;;34.01;26.15;99124.13;5076226;28;20634;-86
2023/09/12 10:28:59;;;;;;;1.30;0.55;;;;;;;34.11;26.25;99122.78;5076398;28;20196;-87
2023/09/12 10:31:26;;;;;;;4.97;0.77;;;;;;;33.98;26.81;99126.50;5058838;28;20189;-86
2023/09/12 10:33:53;;;;;;;3.00;1.00;;;;;;;34.17;24.84;99121.88;5076845;28;20181;-86
2023/09/12 10:36:20;;;;;;;1.42;0.70;;;;;;;34.33;25.03;99121.22;5077016;28;20540;-86
2023/09/12 10:38:47;;;;;;;2.47;1.02;;;;;;;34.22;25.56;99114.69;5076284;28;20605;-86
2023/09/12 10:41:15;;;;;;;9.23;0.95;;;;;;;34.53;24.67;99121.72;5058669;28;20185;-87
2023/09/12 10:43:49;;;;;;;4.03;1.15;;;;;;;34.98;23.69;99116.53;5058740;28;20181;-86
2023/09/12 10:46:15;;;;;;;2.55;0.98;;;;;;;35.32;23.33;99115.69;5076212;28;20236;-86
2023/09/12 10:48:42;;;;;;;2.95;0.98;;;;;;;35.20;23.94;99109.44;5076496;28;20242;-86
2023/09/12 10:51:12;;;;;;;2.83;1.10;;;;;;;35.33;23.44;99116.50;5058602;28;20188;-86
2023/09/12 10:53:46;;;;;;;3.78;1.00;;;;;;;34.78;24.82;99108.72;5075946;28;20180;-86
2023/09/12 10:56:17;;;;;;;2.42;0.85;;;;;;;34.87;24.56;99107.31;5075927;28;20173;-86
2023/09/12 10:59:04;;;;;;;12.38;5.10;;;;;;;35.23;23.74;99103.50;5058472;28;20200;-86
2023/09/12 11:01:42;;;;;;;5.53;1.40;;;;;;;35.33;23.72;99098.25;5076399;28;20201;-87
2023/09/12 11:04:46;;;;;;;1.92;0.90;;;;;;;35.54;23.70;99096.81;5076027;28;20161;-87
2023/09/12 11:07:40;;;;;;;3.15;1.15;;;;;;;35.38;24.17;99098.34;4975639;28;20253;-86
2023/09/12 11:10:19;;;;;;;4.20;0.80;;;;;;;35.65;23.68;99093.22;4953921;28;20642;-86
2023/09/12 11:12:46;;;;;;;5.40;1.13;;;;;;;35.80;23.43;99084.50;5032782;28;20522;-86
2023/09/12 11:15:15;;;;;;;4.72;1.02;;;;;;;35.19;24.29;99084.06;5058198;28;20192;-86
2023/09/12 11:17:43;;;;;;;2.97;0.90;;;;;;;34.91;24.64;99086.69;5058281;28;20173;-86
2023/09/12 11:20:12;;;;;;;4.65;1.45;;;;;;;35.03;25.40;99083.97;5058100;28;20215;-86
2023/09/12 11:22:46;;;;;;;1.48;0.70;;;;;;;34.94;24.59;99080.75;5057638;28;20576;-86
2023/09/12 11:25:23;;;;;;;2.90;0.95;;;;;;;34.86;24.86;99072.13;5075437;28;20554;-85
2023/09/12 11:27:54;;;;;;;2.58;1.00;;;;;;;35.32;23.51;99079.44;5076241;28;20171;-87
2023/09/12 11:30:24;;;;;;;2.90;0.63;;;;;;;35.58;23.78;99063.38;5057702;28;20572;-86
2023/09/12 11:32:51;;;;;;;3.05;0.93;;;;;;;35.38;23.67;99071.09;5057937;28;20177;-85
2023/09/12 11:35:28;;;;;;;3.00;1.10;;;;;;;35.41;23.80;99062.44;5075202;28;20189;-86